Time;durP1;ratioP1;P1;durP2;ratioP2;P2;SDS_P1;SDS_P2;PMS_P1;PMS_P2;Temp;Humidity;BMP_temperature;BMP_pressure;BME280_temperature;BME280_humidity;BME280_pressure;Samples;Min_cycle;Max_cycle;Signal;HPM_P1;HPM_P2
2022/05/25 00:00:36;;;;;;;9.88;4.78;;;11.40;99.90;;;;;;5075103;28;20038;-69
2022/05/25 00:03:02;;;;;;;7.93;4.05;;;11.30;99.90;;;;;;5074759;28;20068;-69
2022/05/25 00:05:30;;;;;;;8.23;4.22;;;11.30;99.90;;;;;;5074990;28;20024;-68
2022/05/25 00:07:57;;;;;;;6.85;3.88;;;11.20;99.90;;;;;;5073879;28;20070;-71
2022/05/25 00:10:23;;;;;;;7.25;3.72;;;11.10;99.90;;;;;;5073615;28;20021;-68
2022/05/25 00:12:49;;;;;;;7.72;4.05;;;11.10;99.90;;;;;;5073731;28;20059;-70
2022/05/25 00:15:15;;;;;;;7.22;4.13;;;11.00;99.90;;;;;;5074835;28;20021;-68
2022/05/25 00:17:40;;;;;;;6.97;4.53;;;11.00;99.90;;;;;;5073573;28;20029;-68
2022/05/25 00:20:07;;;;;;;5.88;3.78;;;10.90;99.90;;;;;;5073375;28;20028;-68
2022/05/25 00:22:44;;;;;;;7.18;4.05;;;10.90;99.90;;;;;;5073390;28;20459;-68
2022/05/25 00:25:15;;;;;;;5.90;3.88;;;10.80;99.90;;;;;;5055722;28;20025;-68
2022/05/25 00:27:40;;;;;;;5.90;3.97;;;10.80;99.90;;;;;;5074537;28;20028;-68
2022/05/25 00:30:07;;;;;;;6.15;3.70;;;10.70;99.90;;;;;;5073231;28;20390;-68
2022/05/25 00:32:33;;;;;;;7.28;3.97;;;10.70;99.90;;;;;;5074429;28;20039;-68
2022/05/25 00:34:59;;;;;;;7.65;4.40;;;10.80;99.90;;;;;;5074401;28;20032;-68
2022/05/25 00:37:24;;;;;;;10.15;4.00;;;10.60;99.90;;;;;;5074325;28;20490;-68
2022/05/25 00:39:50;;;;;;;8.88;4.30;;;10.50;99.90;;;;;;5073123;28;20036;-68
2022/05/25 00:42:16;;;;;;;7.95;4.32;;;10.50;99.90;;;;;;5074267;28;20038;-68
2022/05/25 00:44:42;;;;;;;5.72;3.88;;;10.40;99.90;;;;;;5074265;28;20021;-69
2022/05/25 00:47:10;;;;;;;6.50;4.15;;;10.40;99.90;;;;;;5072886;28;20439;-69
2022/05/25 00:49:36;;;;;;;6.43;3.47;;;10.30;99.90;;;;;;5056173;28;20112;-69
2022/05/25 00:52:06;;;;;;;5.30;4.00;;;10.30;99.90;;;;;;5074081;28;20029;-70
2022/05/25 00:54:54;;;;;;;8.35;3.72;;;10.20;99.90;;;;;;5072891;28;20028;-69
2022/05/25 00:57:22;;;;;;;8.27;4.43;;;10.30;99.90;;;;;;5073880;28;20568;-69
2022/05/25 00:59:57;;;;;;;6.53;3.45;;;10.20;99.90;;;;;;5073874;28;20073;-69
2022/05/25 01:02:25;;;;;;;8.38;4.05;;;10.20;99.90;;;;;;5073651;28;20036;-69
2022/05/25 01:04:50;;;;;;;5.53;3.38;;;10.20;99.90;;;;;;5073769;28;20020;-69
2022/05/25 01:07:56;;;;;;;8.10;3.80;;;10.10;99.90;;;;;;5073824;28;20423;-69
2022/05/25 01:10:51;;;;;;;5.70;3.47;;;10.10;99.90;;;;;;5073671;28;20021;-69
2022/05/25 01:13:50;;;;;;;7.35;3.65;;;10.20;99.90;;;;;;5073515;28;20025;-69
2022/05/25 01:16:31;;;;;;;7.40;3.30;;;10.10;99.90;;;;;;5058451;28;20111;-69
2022/05/25 01:19:36;;;;;;;4.63;3.20;;;10.00;99.90;;;;;;5073602;28;20471;-69
2022/05/25 01:22:31;;;;;;;6.30;3.13;;;9.90;99.90;;;;;;5072049;28;20134;-70
2022/05/25 01:25:25;;;;;;;6.50;3.45;;;9.90;99.90;;;;;;5072076;28;20368;-69
2022/05/25 01:27:53;;;;;;;5.45;3.05;;;9.80;99.90;;;;;;5073321;28;20039;-69
2022/05/25 01:30:25;;;;;;;6.25;3.33;;;9.70;99.90;;;;;;5072289;28;20027;-69
2022/05/25 01:33:03;;;;;;;4.33;2.70;;;9.70;99.90;;;;;;5072282;28;20446;-68
2022/05/25 01:35:39;;;;;;;4.25;2.90;;;9.70;99.90;;;;;;5072281;28;20028;-68
2022/05/25 01:38:27;;;;;;;5.15;3.33;;;9.70;99.90;;;;;;5072080;28;20028;-69
2022/05/25 01:41:31;;;;;;;4.75;3.10;;;9.70;99.90;;;;;;5073172;28;20031;-69
2022/05/25 01:44:01;;;;;;;4.95;3.33;;;9.60;99.90;;;;;;5073248;28;20020;-68
2022/05/25 01:46:48;;;;;;;4.70;3.17;;;9.60;99.90;;;;;;5071987;28;20054;-69
2022/05/25 01:49:19;;;;;;;5.35;3.50;;;9.60;99.90;;;;;;5072095;28;20027;-69
2022/05/25 01:51:49;;;;;;;3.42;3.13;;;9.60;99.90;;;;;;5071888;28;20027;-69
2022/05/25 01:54:19;;;;;;;5.35;3.05;;;9.50;99.90;;;;;;5055277;28;20025;-69
2022/05/25 01:56:51;;;;;;;5.90;3.13;;;9.50;99.90;;;;;;5071797;28;20024;-68
2022/05/25 01:59:18;;;;;;;5.32;3.15;;;9.50;99.90;;;;;;5071855;28;20024;-69
2022/05/25 02:04:19;;;;;;;6.88;3.70;;;9.50;99.90;;;;;;5072828;28;20040;-68
2022/05/25 02:04:40;;;;;;;4.60;3.53;;;9.40;99.90;;;;;;5072928;28;20021;-68
2022/05/25 02:07:24;;;;;;;5.90;3.47;;;9.40;99.90;;;;;;5073041;28;20111;-68
2022/05/25 02:10:06;;;;;;;6.45;3.35;;;9.40;99.90;;;;;;5056492;28;20021;-68
2022/05/25 02:13:11;;;;;;;6.53;3.50;;;9.30;99.90;;;;;;5072957;28;20021;-68
2022/05/25 02:16:17;;;;;;;3.97;3.08;;;9.30;99.90;;;;;;5072833;28;20029;-69
2022/05/25 02:19:17;;;;;;;6.10;3.53;;;9.20;99.90;;;;;;5072774;28;20390;-69
2022/05/25 02:22:06;;;;;;;8.07;3.67;;;9.10;99.90;;;;;;5072646;28;20158;-68
2022/05/25 02:24:42;;;;;;;5.82;3.42;;;9.20;99.90;;;;;;5072882;28;20025;-69
2022/05/25 02:27:23;;;;;;;8.25;3.78;;;9.10;99.90;;;;;;5055605;28;20031;-68
2022/05/25 02:29:53;;;;;;;4.95;3.67;;;9.10;99.90;;;;;;5071690;28;20077;-70
2022/05/25 02:32:25;;;;;;;4.70;3.63;;;9.00;99.90;;;;;;5071610;28;20036;-69
2022/05/25 02:34:53;;;;;;;7.97;3.70;;;9.00;99.90;;;;;;5071692;28;20123;-69
2022/05/25 02:37:23;;;;;;;5.75;3.83;;;8.90;99.90;;;;;;5072789;28;20021;-69
2022/05/25 02:39:51;;;;;;;5.63;3.50;;;8.90;99.90;;;;;;5071561;28;20025;-69
2022/05/25 02:42:17;;;;;;;4.38;3.20;;;8.80;99.90;;;;;;5072731;28;20103;-69
2022/05/25 02:44:43;;;;;;;5.78;3.67;;;8.80;99.90;;;;;;5072730;28;20090;-69
2022/05/25 02:47:09;;;;;;;5.45;3.70;;;8.80;99.90;;;;;;5072644;28;20074;-69
2022/05/25 02:49:36;;;;;;;5.43;3.50;;;8.70;99.90;;;;;;5075446;28;20016;-70
2022/05/25 02:52:01;;;;;;;8.05;3.88;;;8.70;99.90;;;;;;5058588;28;20029;-69
2022/05/25 02:54:27;;;;;;;5.40;3.67;;;8.60;99.90;;;;;;5076301;28;20084;-69
2022/05/25 02:56:52;;;;;;;4.78;3.50;;;8.60;99.90;;;;;;5076194;28;20421;-69
2022/05/25 02:59:18;;;;;;;5.80;3.85;;;8.60;99.90;;;;;;5075071;28;20025;-69
2022/05/25 03:01:43;;;;;;;5.55;4.28;;;8.60;99.90;;;;;;5074663;28;20059;-68
2022/05/25 03:04:09;;;;;;;7.53;4.47;;;8.50;99.90;;;;;;5074962;28;20025;-68
2022/05/25 03:06:35;;;;;;;6.38;4.10;;;8.50;99.90;;;;;;5076039;28;20126;-68
2022/05/25 03:09:01;;;;;;;4.63;4.00;;;8.50;99.90;;;;;;5076075;28;20048;-68
2022/05/25 03:11:26;;;;;;;6.85;3.90;;;8.40;99.90;;;;;;5074813;28;20099;-68
2022/05/25 03:13:52;;;;;;;6.70;4.50;;;8.50;99.90;;;;;;5074631;28;20111;-68
2022/05/25 03:16:19;;;;;;;5.43;4.32;;;8.40;99.90;;;;;;5076024;28;20032;-69
2022/05/25 03:18:46;;;;;;;5.05;3.67;;;8.40;99.90;;;;;;5075913;28;20020;-68
2022/05/25 03:21:12;;;;;;;6.60;4.78;;;8.40;99.90;;;;;;5074499;28;20055;-70
2022/05/25 03:23:38;;;;;;;7.38;4.88;;;8.40;99.90;;;;;;5075840;28;20025;-69
2022/05/25 03:26:04;;;;;;;6.97;4.30;;;8.40;99.90;;;;;;5075724;28;20021;-69
2022/05/25 03:28:30;;;;;;;6.55;4.68;;;8.40;99.90;;;;;;5075707;28;20017;-69
2022/05/25 03:30:55;;;;;;;5.93;4.45;;;8.40;99.90;;;;;;5075708;28;20103;-69
2022/05/25 03:33:21;;;;;;;6.95;4.90;;;8.40;99.90;;;;;;5075709;28;20031;-69
2022/05/25 03:35:46;;;;;;;7.78;5.13;;;8.40;99.90;;;;;;5074490;28;20474;-68
2022/05/25 03:38:12;;;;;;;7.25;4.45;;;8.40;99.90;;;;;;5075612;28;20383;-69
2022/05/25 03:40:39;;;;;;;7.40;4.82;;;8.40;99.90;;;;;;5074307;28;20062;-68
2022/05/25 03:43:10;;;;;;;7.85;5.15;;;8.40;99.90;;;;;;5074216;28;20085;-69
2022/05/25 03:45:35;;;;;;;8.52;5.22;;;8.40;99.90;;;;;;5075414;28;20070;-69
2022/05/25 03:48:01;;;;;;;9.23;5.25;;;8.40;99.90;;;;;;5075342;28;20488;-68
2022/05/25 03:50:27;;;;;;;10.52;5.63;;;8.40;99.90;;;;;;5074184;28;20406;-68
2022/05/25 03:52:52;;;;;;;7.45;5.18;;;8.50;99.90;;;;;;5075287;28;20402;-68
2022/05/25 03:55:18;;;;;;;6.88;5.18;;;8.50;99.90;;;;;;5075269;28;20025;-69
2022/05/25 03:57:44;;;;;;;6.80;4.50;;;8.50;99.90;;;;;;5075296;28;20028;-69
2022/05/25 04:00:10;;;;;;;6.53;5.00;;;8.60;99.90;;;;;;5073865;28;20099;-69
2022/05/25 04:02:36;;;;;;;7.30;5.30;;;8.60;99.90;;;;;;5074836;28;20054;-69
2022/05/25 04:05:09;;;;;;;8.63;5.53;;;8.70;99.90;;;;;;5073768;28;20020;-68
2022/05/25 04:07:37;;;;;;;11.77;5.90;;;8.80;99.90;;;;;;5073888;28;20017;-69
2022/05/25 04:10:05;;;;;;;9.57;5.95;;;8.80;99.90;;;;;;5073648;28;20025;-68
2022/05/25 04:12:30;;;;;;;10.73;6.10;;;8.90;99.90;;;;;;5073720;28;20442;-69
2022/05/25 04:14:56;;;;;;;17.60;7.15;;;9.00;99.90;;;;;;5074906;28;20031;-69
2022/05/25 04:17:22;;;;;;;10.23;6.43;;;9.10;99.90;;;;;;5074767;28;20033;-69
2022/05/25 04:19:47;;;;;;;9.00;6.22;;;9.20;99.90;;;;;;5056818;28;20073;-68
2022/05/25 04:22:13;;;;;;;10.68;6.50;;;9.30;99.90;;;;;;5073476;28;20024;-68
2022/05/25 04:24:38;;;;;;;8.77;6.13;;;9.40;99.90;;;;;;5073412;28;20025;-68
2022/05/25 04:27:04;;;;;;;9.95;6.38;;;9.60;99.90;;;;;;5074576;28;20029;-68
2022/05/25 04:29:29;;;;;;;11.00;7.07;;;9.80;99.90;;;;;;5074582;28;20484;-68
2022/05/25 04:31:55;;;;;;;9.10;6.90;;;10.30;99.90;;;;;;5074439;28;20376;-68
2022/05/25 04:34:20;;;;;;;11.15;6.55;;;11.50;99.90;;;;;;5074497;28;20035;-69
2022/05/25 04:36:48;;;;;;;9.43;4.82;;;;;;;;;;5073116;28;20025;-69
2022/05/25 04:39:13;;;;;;;7.72;4.40;;;13.10;99.90;;;;;;5073011;28;20028;-70
2022/05/25 04:41:39;;;;;;;6.55;3.80;;;13.40;99.90;;;;;;5074204;28;20550;-70
2022/05/25 04:44:05;;;;;;;9.95;3.83;;;15.40;99.90;;;;;;5074221;28;20023;-69
2022/05/25 04:46:30;;;;;;;5.72;3.70;;;15.50;99.90;;;;;;5074183;28;20035;-69
2022/05/25 04:48:57;;;;;;;16.63;4.70;;;15.80;99.90;;;;;;5072915;28;20394;-69
2022/05/25 04:51:22;;;;;;;9.25;4.28;;;15.70;99.90;;;;;;5074086;28;20019;-69
2022/05/25 04:53:49;;;;;;;5.60;4.00;;;15.90;99.90;;;;;;5056087;28;20124;-70
2022/05/25 04:59:00;;;;;;;7.90;4.25;;;16.40;99.90;;;;;;5073753;28;20024;-69
2022/05/25 05:01:25;;;;;;;10.68;4.95;;;16.30;99.90;;;;;;5073523;28;20197;-71
2022/05/25 05:03:51;;;;;;;8.07;4.72;;;15.80;99.90;;;;;;5073821;28;20024;-70
2022/05/25 05:06:16;;;;;;;7.28;4.47;;;15.40;99.90;;;;;;5072868;28;20091;-68
2022/05/25 05:08:42;;;;;;;7.80;5.20;;;14.90;99.90;;;;;;5072445;28;20073;-69
2022/05/25 05:11:11;;;;;;;9.02;5.63;;;14.20;99.90;;;;;;5072031;28;20024;-68
2022/05/25 05:13:37;;;;;;;7.18;5.60;;;13.50;99.90;;;;;;5072397;28;20162;-69
2022/05/25 05:16:09;;;;;;;9.32;5.80;;;13.10;99.90;;;;;;5073582;28;20025;-70
2022/05/25 05:18:35;;;;;;;8.40;6.03;;;13.30;99.90;;;;;;5073588;28;20066;-70
2022/05/25 05:21:00;;;;;;;10.55;6.20;;;13.60;99.90;;;;;;5072240;28;20020;-69
2022/05/25 05:23:26;;;;;;;11.82;6.43;;;13.60;99.90;;;;;;5073452;28;20448;-68
2022/05/25 05:25:52;;;;;;;9.27;5.85;;;13.80;99.90;;;;;;5073518;28;20021;-68
2022/05/25 05:28:19;;;;;;;8.90;5.10;;;14.30;99.90;;;;;;5072442;28;20020;-69
2022/05/25 05:30:50;;;;;;;10.77;5.30;;;15.30;99.90;;;;;;5073639;28;20021;-69
2022/05/25 05:33:16;;;;;;;9.45;5.20;;;15.90;99.90;;;;;;5073383;28;20027;-69
2022/05/25 05:35:44;;;;;;;9.80;5.35;;;16.00;99.90;;;;;;5073325;28;20028;-70
2022/05/25 05:38:11;;;;;;;7.53;5.38;;;16.10;99.90;;;;;;5073322;28;20498;-69
2022/05/25 05:40:37;;;;;;;8.35;5.43;;;16.60;99.90;;;;;;5072020;28;20029;-69
2022/05/25 05:43:06;;;;;;;11.13;6.00;;;16.30;99.90;;;;;;5073181;28;20032;-69
2022/05/25 05:45:35;;;;;;;7.70;5.68;;;16.00;99.90;;;;;;5073286;28;20027;-69
2022/05/25 05:48:09;;;;;;;7.95;5.78;;;15.90;99.90;;;;;;5071899;28;20035;-69
2022/05/25 05:50:38;;;;;;;9.35;6.18;;;15.70;99.90;;;;;;5071926;28;20048;-69
2022/05/25 05:53:05;;;;;;;8.65;5.78;;;15.70;99.90;;;;;;5072012;28;20098;-70
2022/05/25 05:55:33;;;;;;;9.20;5.80;;;15.70;99.90;;;;;;5071739;28;20501;-69
2022/05/25 05:57:59;;;;;;;8.60;6.18;;;16.50;99.90;;;;;;5071953;28;20031;-69
2022/05/25 06:00:24;;;;;;;8.20;6.03;;;16.30;99.90;;;;;;5071924;28;20475;-70
2022/05/25 06:02:50;;;;;;;9.20;5.80;;;16.40;99.90;;;;;;5054848;28;20044;-70
2022/05/25 06:05:16;;;;;;;11.98;6.15;;;16.70;99.90;;;;;;5054989;28;20421;-69
2022/05/25 06:07:42;;;;;;;10.75;6.72;;;17.30;99.90;;;;;;5073884;28;20527;-69
2022/05/25 06:10:09;;;;;;;10.05;6.20;;;17.00;99.90;;;;;;5060633;28;20029;-70
2022/05/25 06:12:34;;;;;;;10.70;6.80;;;17.00;99.90;;;;;;5069474;28;20071;-69
2022/05/25 06:19:25;;;;;;;9.48;6.43;;;17.20;99.90;;;;;;5092905;28;20055;-70
2022/05/25 06:19:25;;;;;;;11.20;6.60;;;17.40;99.90;;;;;;5076279;28;20036;-70
2022/05/25 06:20:34;;;;;;;10.55;7.03;;;17.60;99.90;;;;;;5082108;28;20055;-70
2022/05/25 06:22:59;;;;;;;11.23;6.95;;;17.20;99.90;;;;;;5057120;28;20494;-69
2022/05/25 06:25:25;;;;;;;13.02;7.25;;;17.50;99.90;;;;;;5054146;28;20111;-70
2022/05/25 06:27:50;;;;;;;8.75;6.60;;;17.80;99.90;;;;;;5080830;28;20032;-70
2022/05/25 06:30:16;;;;;;;11.75;6.95;;;17.70;99.90;;;;;;5075494;28;20467;-70
2022/05/25 06:32:41;;;;;;;12.38;7.22;;;18.50;99.90;;;;;;5079767;28;20032;-70
2022/05/25 06:35:07;;;;;;;13.52;7.10;;;18.50;99.90;;;;;;5072752;28;20418;-70
2022/05/25 06:37:33;;;;;;;16.38;7.40;;;18.40;99.90;;;;;;5082245;28;20037;-71
2022/05/25 06:40:00;;;;;;;11.98;7.15;;;18.50;99.90;;;;;;5080442;28;20028;-70
2022/05/25 06:42:26;;;;;;;11.13;7.57;;;18.00;99.90;;;;;;5081876;28;20081;-70
2022/05/25 06:44:51;;;;;;;11.93;7.35;;;18.30;99.90;;;;;;5089472;28;20024;-70
2022/05/25 06:47:17;;;;;;;12.75;7.43;;;18.90;99.90;;;;;;5091466;28;20047;-70
2022/05/25 06:49:43;;;;;;;9.80;7.25;;;19.00;99.90;;;;;;5077957;28;20047;-70
2022/05/25 06:52:10;;;;;;;12.38;7.22;;;19.10;99.90;;;;;;5091432;28;20501;-70
2022/05/25 06:54:37;;;;;;;12.45;7.10;;;18.70;99.90;;;;;;5078910;28;20106;-70
2022/05/25 06:57:02;;;;;;;10.80;7.03;;;19.40;99.90;;;;;;5075332;28;20024;-70
2022/05/25 06:59:28;;;;;;;13.88;7.07;;;19.80;99.90;;;;;;5077497;28;20436;-71
2022/05/25 07:01:53;;;;;;;10.73;6.93;;;20.00;99.90;;;;;;5085638;28;20069;-70
2022/05/25 07:04:19;;;;;;;10.63;7.25;;;18.90;99.90;;;;;;5089709;28;20032;-69
2022/05/25 07:06:44;;;;;;;10.95;7.65;;;18.40;99.90;;;;;;5072762;28;20029;-69
2022/05/25 07:09:10;;;;;;;9.88;7.35;;;18.20;99.90;;;;;;5073928;28;20380;-69
2022/05/25 07:11:36;;;;;;;11.93;6.70;;;18.90;99.90;;;;;;5074417;28;20545;-69
2022/05/25 07:14:02;;;;;;;10.13;6.68;;;19.40;99.90;;;;;;5083410;28;20390;-70
2022/05/25 07:16:28;;;;;;;13.13;6.57;;;19.50;99.90;;;;;;5072792;28;20399;-70
2022/05/25 07:18:54;;;;;;;7.50;6.13;;;19.20;99.90;;;;;;5086970;28;20030;-70
2022/05/25 07:21:27;;;;;;;12.13;6.30;;;19.40;99.90;;;;;;5081336;28;20029;-70
2022/05/25 07:23:55;;;;;;;12.05;6.07;;;20.10;99.90;;;;;;5086928;28;20544;-69
2022/05/25 07:26:22;;;;;;;10.00;6.55;;;19.90;99.90;;;;;;5084065;28;20031;-70
2022/05/25 07:28:51;;;;;;;9.80;5.80;;;19.90;99.90;;;;;;5083970;28;20013;-70
2022/05/25 07:31:38;;;;;;;10.25;5.25;;;20.30;99.90;;;;;;5074587;28;20031;-69
2022/05/25 07:34:25;;;;;;;10.70;4.90;;;20.10;99.90;;;;;;5077189;28;20389;-70
2022/05/25 07:36:55;;;;;;;7.00;4.60;;;20.20;99.90;;;;;;5064550;28;20442;-69
2022/05/25 07:39:28;;;;;;;5.68;3.65;;;18.90;99.90;;;;;;5074274;28;20024;-70
2022/05/25 07:41:57;;;;;;;7.30;3.58;;;18.70;99.90;;;;;;5088239;28;20031;-69
2022/05/25 07:44:27;;;;;;;4.85;2.88;;;19.00;99.90;;;;;;5075117;28;20442;-70
2022/05/25 07:46:53;;;;;;;6.22;3.17;;;19.30;99.90;;;;;;5060436;28;20466;-69
2022/05/25 07:49:18;;;;;;;6.80;2.58;;;19.20;99.90;;;;;;5072929;28;20029;-70
2022/05/25 07:51:45;;;;;;;4.60;2.85;;;19.50;99.90;;;;;;5078573;28;20036;-69
2022/05/25 07:54:11;;;;;;;10.50;4.53;;;20.50;99.90;;;;;;5074579;28;20364;-69
2022/05/25 07:56:38;;;;;;;5.20;1.90;;;19.80;99.90;;;;;;5085234;28;20081;-69
2022/05/25 07:59:10;;;;;;;5.32;2.15;;;20.20;99.90;;;;;;5077540;28;20082;-69
2022/05/25 08:07:23;;;;;;;4.40;1.25;;;19.20;99.90;;;;;;5077264;28;20368;-69
2022/05/25 08:09:51;;;;;;;3.00;1.00;;;19.40;99.90;;;;;;5085300;28;20024;-69
2022/05/25 08:12:17;;;;;;;3.10;1.05;;;19.60;99.30;;;;;;5086345;28;20043;-69
2022/05/25 08:14:43;;;;;;;6.20;1.35;;;20.00;99.00;;;;;;5079632;28;20025;-70
2022/05/25 08:17:08;;;;;;;2.40;0.90;;;19.80;98.80;;;;;;5062418;28;20108;-69
2022/05/25 08:19:35;;;;;;;4.32;1.30;;;19.30;99.50;;;;;;5089480;28;20028;-69
2022/05/25 08:22:01;;;;;;;5.78;1.30;;;19.80;99.00;;;;;;5079207;28;20019;-69
2022/05/25 08:24:29;;;;;;;3.67;1.00;;;20.10;99.30;;;;;;5084996;28;20029;-69
2022/05/25 08:26:55;;;;;;;4.35;1.55;;;20.00;97.70;;;;;;5067674;28;20077;-70
2022/05/25 08:29:24;;;;;;;3.72;1.50;;;20.40;95.20;;;;;;5069794;28;20024;-68
2022/05/25 08:31:53;;;;;;;1.08;0.90;;;20.10;97.40;;;;;;5085012;28;20027;-69
2022/05/25 08:34:19;;;;;;;2.75;1.02;;;20.50;92.80;;;;;;5088101;28;20474;-67
2022/05/25 08:36:44;;;;;;;4.63;1.08;;;20.00;94.20;;;;;;5063488;28;20074;-70
2022/05/25 08:39:10;;;;;;;3.38;1.00;;;19.40;95.60;;;;;;5059549;28;20025;-71
2022/05/25 08:41:37;;;;;;;3.10;0.93;;;20.00;94.10;;;;;;5065500;28;20036;-69
2022/05/25 08:44:04;;;;;;;5.00;1.38;;;21.00;91.30;;;;;;5072607;28;20024;-70
2022/05/25 08:46:31;;;;;;;3.13;1.33;;;21.10;88.20;;;;;;5074396;28;20047;-69
2022/05/25 08:49:01;;;;;;;2.17;0.82;;;21.10;90.10;;;;;;5073738;28;20364;-69
2022/05/25 08:51:28;;;;;;;2.22;0.98;;;21.10;90.80;;;;;;5085107;28;20016;-69
2022/05/25 08:53:57;;;;;;;2.58;1.02;;;21.40;91.00;;;;;;5077418;28;20024;-70
2022/05/25 08:56:45;;;;;;;4.88;1.55;;;21.30;90.60;;;;;;5081661;28;20451;-70
2022/05/25 08:59:21;;;;;;;3.33;1.00;;;20.70;92.10;;;;;;5071940;28;20025;-70
2022/05/25 09:04:55;;;;;;;2.05;1.00;;;21.10;90.50;;;;;;5094514;28;20450;-70
2022/05/25 09:08:00;;;;;;;4.70;1.33;;;20.80;90.40;;;;;;5097099;28;20052;-70
2022/05/25 09:10:29;;;;;;;1.15;0.68;;;20.90;92.10;;;;;;5092899;28;20366;-70
2022/05/25 09:13:04;;;;;;;1.60;1.10;;;21.50;90.50;;;;;;5098996;28;20020;-70
2022/05/25 09:15:36;;;;;;;4.15;0.88;;;20.90;89.00;;;;;;5078472;28;20029;-70
2022/05/25 09:18:06;;;;;;;6.53;1.45;;;21.10;89.40;;;;;;5090932;28;20031;-70
2022/05/25 09:20:42;;;;;;;2.53;1.00;;;21.00;89.80;;;;;;5097883;28;20024;-70
2022/05/25 09:23:09;;;;;;;3.90;0.95;;;21.10;88.20;;;;;;5101453;28;20032;-70
2022/05/25 09:25:36;;;;;;;6.05;1.05;;;21.10;88.70;;;;;;5088223;28;20095;-70
2022/05/25 09:28:16;;;;;;;3.53;1.20;;;21.40;90.10;;;;;;5096143;28;20545;-70
2022/05/25 09:30:45;;;;;;;2.47;1.10;;;21.20;89.70;;;;;;5092771;28;20024;-70
2022/05/25 09:33:39;;;;;;;3.75;1.30;;;21.90;88.00;;;;;;5101066;28;20031;-71
2022/05/25 09:36:25;;;;;;;2.05;1.00;;;21.70;88.10;;;;;;5083265;28;20062;-70
2022/05/25 09:39:03;;;;;;;1.90;1.15;;;21.20;85.80;;;;;;5084234;28;20032;-70
2022/05/25 09:41:31;;;;;;;2.67;0.90;;;21.30;88.80;;;;;;5088092;28;20043;-70
2022/05/25 09:43:59;;;;;;;2.80;0.82;;;21.80;86.90;;;;;;5093783;28;20417;-70
2022/05/25 09:46:36;;;;;;;3.47;0.93;;;21.30;85.00;;;;;;5097406;28;20034;-70
2022/05/25 09:49:06;;;;;;;1.38;1.00;;;20.70;87.80;;;;;;5092489;28;20465;-72
2022/05/25 09:51:51;;;;;;;4.03;1.00;;;20.40;89.80;;;;;;5087979;28;20016;-71
2022/05/25 09:57:13;;;;;;;2.03;1.10;;;19.90;92.30;;;;;;5080581;28;20455;-70
2022/05/25 09:59:47;;;;;;;5.68;1.05;;;19.50;92.40;;;;;;5055633;28;20111;-71
2022/05/25 10:02:27;;;;;;;3.20;1.20;;;19.70;92.20;;;;;;5062113;28;20024;-71
2022/05/25 10:04:55;;;;;;;4.05;1.10;;;19.70;92.10;;;;;;5060352;28;20021;-70
2022/05/25 10:07:30;;;;;;;4.47;1.05;;;19.60;93.50;;;;;;5065928;28;20451;-70
2022/05/25 10:10:01;;;;;;;0.90;0.80;;;19.50;93.50;;;;;;5060151;28;20017;-71
2022/05/25 10:12:33;;;;;;;2.25;0.98;;;19.90;91.80;;;;;;5067671;28;20359;-71
2022/05/25 10:15:04;;;;;;;4.32;1.25;;;19.90;92.90;;;;;;5061963;28;20125;-70
2022/05/25 10:17:35;;;;;;;3.90;1.35;;;19.40;92.70;;;;;;5068488;28;20044;-72
2022/05/25 10:20:05;;;;;;;4.15;1.02;;;19.80;93.00;;;;;;5074250;28;20525;-71
2022/05/25 10:22:37;;;;;;;3.78;1.48;;;19.90;91.30;;;;;;5073181;28;20454;-70
2022/05/25 10:25:08;;;;;;;1.73;0.80;;;20.40;90.50;;;;;;5040431;28;20083;-71
2022/05/25 10:27:40;;;;;;;2.15;0.80;;;20.90;88.40;;;;;;5068054;28;20027;-71
2022/05/25 10:38:48;;;;;;;1.77;0.68;;;20.40;88.00;;;;;;5067095;28;20028;-70
2022/05/25 10:41:45;;;;;;;2.05;0.80;;;20.30;87.40;;;;;;5079087;28;20493;-71
2022/05/25 10:44:14;;;;;;;2.80;1.17;;;20.60;88.70;;;;;;5084302;28;20105;-70
2022/05/25 10:46:42;;;;;;;2.90;0.90;;;20.80;87.30;;;;;;5046110;28;20116;-71
2022/05/25 10:49:29;;;;;;;4.13;1.00;;;20.60;90.20;;;;;;5057410;28;20029;-70
2022/05/25 10:52:01;;;;;;;3.20;0.80;;;20.50;88.50;;;;;;5074507;28;20495;-70
2022/05/25 10:54:45;;;;;;;4.80;0.93;;;20.70;90.80;;;;;;5069676;28;20413;-71
2022/05/25 11:00:12;;;;;;;3.95;0.93;;;21.00;88.50;;;;;;5116734;27;20937;-71
2022/05/25 11:03:10;;;;;;;1.48;0.90;;;20.20;90.80;;;;;;5111028;28;20031;-70
2022/05/25 11:06:04;;;;;;;5.72;0.90;;;21.10;91.60;;;;;;5122115;28;20076;-70
2022/05/25 11:08:52;;;;;;;1.70;0.70;;;20.90;84.20;;;;;;5096612;28;20024;-70
2022/05/25 11:11:31;;;;;;;3.20;0.93;;;20.40;87.30;;;;;;5110545;28;20020;-72
2022/05/25 11:14:36;;;;;;;2.60;0.73;;;20.20;85.90;;;;;;5108707;28;20023;-71
2022/05/25 11:17:17;;;;;;;4.20;0.70;;;20.60;88.50;;;;;;5110304;28;20095;-71
2022/05/25 11:20:22;;;;;;;1.83;0.60;;;21.40;87.00;;;;;;5108912;28;20119;-71
2022/05/25 11:23:21;;;;;;;0.90;0.60;;;20.80;80.90;;;;;;5096772;28;20016;-70
2022/05/25 11:26:26;;;;;;;1.23;0.80;;;20.60;83.50;;;;;;5116826;28;20034;-70
2022/05/25 11:29:16;;;;;;;3.97;0.85;;;20.60;83.10;;;;;;5114585;28;20563;-70
2022/05/25 11:32:19;;;;;;;1.80;0.70;;;20.50;82.80;;;;;;5114083;28;20051;-70
2022/05/25 11:35:07;;;;;;;1.00;0.68;;;20.40;80.20;;;;;;5113633;28;20040;-69
2022/05/25 11:38:10;;;;;;;5.20;0.70;;;20.20;81.70;;;;;;5108116;28;20019;-70
2022/05/25 11:41:08;;;;;;;1.77;0.60;;;20.50;83.70;;;;;;5109516;28;20024;-70
2022/05/25 11:44:05;;;;;;;1.20;0.50;;;20.80;81.90;;;;;;5109498;28;20028;-69
2022/05/25 11:46:51;;;;;;;2.35;0.55;;;20.90;78.30;;;;;;5116815;28;20105;-69
2022/05/25 11:49:42;;;;;;;2.13;0.52;;;20.90;78.70;;;;;;5109531;28;20492;-70
2022/05/25 11:52:39;;;;;;;4.03;0.50;;;21.10;80.30;;;;;;5100575;28;20458;-68
2022/05/25 11:55:31;;;;;;;3.63;0.60;;;21.20;79.30;;;;;;5112200;28;20481;-69
2022/05/25 11:58:07;;;;;;;3.90;0.65;;;21.00;76.00;;;;;;5110455;28;20039;-69
2022/05/25 12:00:47;;;;;;;1.23;0.60;;;20.40;79.80;;;;;;5102998;28;20019;-70
2022/05/25 12:03:52;;;;;;;4.40;0.77;;;20.60;78.90;;;;;;5096997;28;20024;-69
2022/05/25 12:09:39;;;;;;;3.65;0.80;;;20.50;80.50;;;;;;5110393;27;20359;-71
2022/05/25 12:12:17;;;;;;;4.07;0.80;;;20.20;78.40;;;;;;5109621;28;20032;-72
2022/05/25 12:15:09;;;;;;;1.13;0.63;;;20.50;76.00;;;;;;5110170;28;20015;-71
2022/05/25 12:17:58;;;;;;;1.65;0.82;;;20.30;78.00;;;;;;5104511;28;20020;-71
2022/05/25 12:20:55;;;;;;;2.78;0.50;;;20.50;78.90;;;;;;5108536;28;20019;-72
2022/05/25 12:23:26;;;;;;;1.27;0.68;;;20.80;80.20;;;;;;5107292;28;20516;-72
2022/05/25 12:25:56;;;;;;;3.50;0.68;;;20.50;79.90;;;;;;5107310;28;20435;-71
2022/05/25 12:28:29;;;;;;;5.15;0.80;;;19.80;80.80;;;;;;5108871;28;20494;-72
2022/05/25 12:31:01;;;;;;;3.05;0.77;;;19.70;85.70;;;;;;5109471;28;20030;-73
2022/05/25 12:33:28;;;;;;;2.15;0.60;;;19.80;84.40;;;;;;5109283;28;20077;-72
2022/05/25 12:35:54;;;;;;;4.88;0.70;;;19.60;81.30;;;;;;5080755;28;20016;-70
2022/05/25 12:38:21;;;;;;;3.67;2.42;;;19.70;80.30;;;;;;5109209;28;20027;-70
2022/05/25 12:40:49;;;;;;;2.67;1.10;;;19.90;80.80;;;;;;5101314;28;20032;-70
2022/05/25 12:43:37;;;;;;;6.82;0.68;;;19.90;79.20;;;;;;5107753;28;20094;-72
2022/05/25 12:48:57;;;;;;;2.83;0.70;;;19.40;80.70;;;;;;5104000;28;20031;-70
2022/05/25 12:51:43;;;;;;;4.38;0.93;;;19.40;81.20;;;;;;5123605;28;20047;-70
2022/05/25 12:54:30;;;;;;;2.22;0.88;;;20.00;79.50;;;;;;5107316;28;20114;-71
2022/05/25 12:56:59;;;;;;;5.07;1.05;;;20.00;79.80;;;;;;5101922;28;20366;-71
2022/05/25 12:59:41;;;;;;;3.45;0.88;;;19.70;83.10;;;;;;5104668;28;20055;-72
2022/05/25 13:02:13;;;;;;;1.38;0.50;;;20.10;83.00;;;;;;5109320;28;20115;-72
2022/05/25 13:04:59;;;;;;;3.20;0.90;;;20.20;78.20;;;;;;5106640;28;20031;-72
2022/05/25 13:07:44;;;;;;;2.83;0.70;;;20.20;80.60;;;;;;5100115;28;20130;-72
2022/05/25 13:10:32;;;;;;;4.13;0.50;;;20.10;77.60;;;;;;5082061;28;20021;-72
2022/05/25 13:13:23;;;;;;;3.10;0.70;;;19.80;75.30;;;;;;5103686;28;20081;-72
2022/05/25 13:15:49;;;;;;;4.18;0.70;;;20.20;77.50;;;;;;5100142;28;20493;-71
2022/05/25 13:18:53;;;;;;;3.50;0.65;;;20.40;77.60;;;;;;5107551;28;20131;-71
2022/05/25 13:21:37;;;;;;;1.40;0.65;;;20.40;79.40;;;;;;5081806;28;20478;-71
2022/05/25 13:24:14;;;;;;;3.45;0.50;;;20.20;78.20;;;;;;5077869;28;20039;-71
2022/05/25 13:26:55;;;;;;;7.55;0.90;;;20.00;78.70;;;;;;5088519;28;20044;-71
2022/05/25 13:29:31;;;;;;;2.85;0.82;;;19.90;76.90;;;;;;5085404;28;20406;-71
2022/05/25 13:32:04;;;;;;;1.05;0.88;;;20.40;78.10;;;;;;5056454;28;20053;-71
2022/05/25 13:34:32;;;;;;;2.20;0.68;;;20.20;74.10;;;;;;5090367;28;20016;-71
2022/05/25 13:37:01;;;;;;;2.42;0.70;;;20.20;76.80;;;;;;5091476;28;20381;-72
2022/05/25 13:39:28;;;;;;;4.47;1.25;;;20.70;78.80;;;;;;5098545;28;20017;-72
2022/05/25 13:42:15;;;;;;;3.67;0.70;;;20.90;73.80;;;;;;5091257;28;20497;-70
2022/05/25 13:44:46;;;;;;;1.95;0.65;;;20.80;72.40;;;;;;5096171;28;20529;-70
2022/05/25 13:47:27;;;;;;;2.08;0.60;;;20.80;73.60;;;;;;5079895;28;20074;-72
2022/05/25 13:49:57;;;;;;;1.30;0.85;;;20.70;73.70;;;;;;5094664;28;20032;-73